Terminal Aerodrome Forecast
Issued by NWS

Home | Current Version | Previous Version | Text Only | Print | Product List | Glossary Off
Versions: 1 2 3 4 5 6 7 8 9 10 11 12 13 14

000
FTUS42 KMHX 190555
TAFPGV
TAF
KPGV 190555Z 1906/2006 21012G22KT P6SM SCT040
     FM190800 22015G22KT 6SM -SHRA SCT020 BKN035
      TEMPO 1911/1913 5SM -RA BKN020
     FM191300 31015KT P6SM BKN045
     FM192100 31007KT P6SM SKC
      AMD LTD TO CLD VIS AND WIND=

USA.gov is the U.S. government's official web portal to all federal, state and local government web resources and services.